METAR Torp

ENTO 272350Z AUTO 22005KT 9999 BKN014/// BKN018/// OVC023/// 04/04 Q0994

METAR Gardermoen

ENGM 272350Z 19006KT 9999 -RASN BKN005 01/01 Q0993 RERA

Webcam Kjeller